Overview Statistics Trail Chart Weather Telemetry Raw packets
 

This is the latest recevied weather packets stored in our database for station/object DG4CB-13. If no packets are shown the sender has not sent any weather packets the latest 10 day(s).

<< 25 26 27 28 29 30 >>
Time Temp. Humidity Pressure Rain* Wind** Luminosity Snow
1787893800 19.44° C 89% 1007.8 hPa - - - -
1787893200 19.44° C 89% 1007.6 hPa - - - -
1787892600 19.44° C 88% 1007.7 hPa - - - -
1787892000 20° C 87% 1007.5 hPa - - - -
1787891401 20° C 87% 1007.3 hPa - - - -
1787890209 20° C 87% 1007.8 hPa - - - -
1787889600 20° C 87% 1008.4 hPa - - - -
1787889000 20° C 87% 1008 hPa - - - -
1787888400 20° C 87% 1008 hPa - - - -
1787887800 20.56° C 86% 1008.7 hPa - - - -
1787887200 20.56° C 86% 1008.8 hPa - - - -
1787886599 20.56° C 86% 1009 hPa - - - -
1787886000 20.56° C 86% 1008.7 hPa - - - -
1787880600 21.11° C 84% 1007.9 hPa - - - -
1787880000 21.67° C 81% 1009.5 hPa - - - -
1787879400 21.67° C 80% 1009.7 hPa - - - -
1787878800 22.22° C 77% 1010.1 hPa - - - -
1787878200 22.78° C 70% 1010.3 hPa - - - -
1787877600 22.78° C 67% 1010.1 hPa - - - -
1787877000 22.78° C 69% 1009.5 hPa - - - -
1787876399 22.22° C 72% 1009.1 hPa - - - -
1787875799 22.22° C 74% 1009 hPa - - - -
1787875199 21.67° C 76% 1009.1 hPa - - - -
1787874599 22.22° C 77% 1008.6 hPa - - - -
1787873999 22.22° C 77% 1007.8 hPa - - - -

* Rain since midnight (hover to see other rain measurements)
** Current wind speed in m/s (hover to see current wind gust speed)